Time;durP1;ratioP1;P1;durP2;ratioP2;P2;SDS_P1;SDS_P2;PMS_P1;PMS_P2;Temp;Humidity;BMP_temperature;BMP_pressure;BME280_temperature;BME280_humidity;BME280_pressure;Samples;Min_cycle;Max_cycle;Signal;HPM_P1;HPM_P2
2023/06/01 00:00:56;;;;;;;8.38;5.13;;;12.70;99.90;;;;;;5053406;28;20498;-55
2023/06/01 00:03:25;;;;;;;7.28;4.53;;;12.70;99.90;;;;;;5053130;28;20044;-60
2023/06/01 00:05:52;;;;;;;7.70;4.57;;;12.70;99.90;;;;;;5053330;28;20045;-57
2023/06/01 00:08:20;;;;;;;11.32;5.07;;;12.70;99.90;;;;;;5052730;28;20156;-55
2023/06/01 00:10:47;;;;;;;10.18;5.45;;;12.60;99.90;;;;;;5053295;28;20079;-54
2023/06/01 00:13:13;;;;;;;6.28;5.00;;;12.60;99.90;;;;;;5053738;28;20099;-55
2023/06/01 00:15:40;;;;;;;7.80;5.25;;;12.60;99.90;;;;;;5053184;28;20041;-57
2023/06/01 00:18:08;;;;;;;8.40;5.70;;;12.60;99.90;;;;;;5055848;28;20033;-56
2023/06/01 00:20:35;;;;;;;9.52;5.70;;;12.40;99.90;;;;;;5057187;28;20098;-54
2023/06/01 00:23:02;;;;;;;9.70;5.97;;;12.40;99.90;;;;;;5056576;28;20041;-54
2023/06/01 00:25:29;;;;;;;8.75;5.07;;;12.30;99.90;;;;;;5056787;28;20385;-57
2023/06/01 00:27:56;;;;;;;8.65;5.97;;;12.30;99.90;;;;;;5056103;28;20071;-55
2023/06/01 00:30:23;;;;;;;7.70;6.20;;;12.20;99.90;;;;;;5057116;28;20041;-51
2023/06/01 00:32:49;;;;;;;12.27;6.38;;;12.10;99.90;;;;;;5056957;28;20048;-50
2023/06/01 00:35:16;;;;;;;7.10;5.95;;;12.00;99.90;;;;;;5056964;28;20503;-54
2023/06/01 00:37:43;;;;;;;10.20;6.35;;;12.00;99.90;;;;;;5057185;28;20837;-56
2023/06/01 00:40:10;;;;;;;7.03;5.72;;;12.00;99.90;;;;;;5055597;28;20047;-56
2023/06/01 00:42:37;;;;;;;10.15;6.25;;;12.00;99.90;;;;;;5056807;28;20033;-56
2023/06/01 00:45:03;;;;;;;9.20;6.03;;;12.00;99.90;;;;;;5055182;28;20051;-53
2023/06/01 00:47:30;;;;;;;7.30;5.90;;;11.90;99.90;;;;;;5056667;28;20512;-52
2023/06/01 00:49:57;;;;;;;11.10;5.60;;;11.90;99.90;;;;;;5056695;28;20048;-52
2023/06/01 00:52:24;;;;;;;9.02;6.50;;;11.90;99.90;;;;;;5056851;28;20114;-53
2023/06/01 00:54:51;;;;;;;9.10;6.22;;;11.90;99.90;;;;;;5055114;28;20080;-52
2023/06/01 00:57:20;;;;;;;10.63;7.10;;;11.90;99.90;;;;;;5055326;28;20045;-55
2023/06/01 00:59:47;;;;;;;10.50;6.78;;;11.80;99.90;;;;;;5056737;28;20526;-54
2023/06/01 01:02:15;;;;;;;12.70;7.22;;;11.80;99.90;;;;;;5056529;28;20094;-51
2023/06/01 01:04:42;;;;;;;8.50;6.53;;;11.80;99.90;;;;;;5056745;28;20045;-50
2023/06/01 01:07:09;;;;;;;11.10;6.72;;;11.80;99.90;;;;;;5056152;28;20472;-55
2023/06/01 01:09:36;;;;;;;9.20;6.03;;;11.70;99.90;;;;;;5056275;28;20083;-53
2023/06/01 01:12:03;;;;;;;10.77;6.57;;;11.70;99.90;;;;;;5054806;28;20104;-51
2023/06/01 01:14:30;;;;;;;8.70;6.20;;;11.70;99.90;;;;;;5055797;28;20041;-48
2023/06/01 01:16:58;;;;;;;8.82;6.32;;;11.70;99.90;;;;;;5054917;28;20033;-49
2023/06/01 01:19:25;;;;;;;8.05;5.95;;;11.80;99.90;;;;;;5055159;28;20115;-56
2023/06/01 01:21:52;;;;;;;11.90;5.93;;;11.80;99.90;;;;;;5056124;28;20088;-54
2023/06/01 01:24:21;;;;;;;10.23;6.43;;;11.90;99.90;;;;;;5055914;28;20189;-57
2023/06/01 01:26:50;;;;;;;14.38;7.05;;;11.90;99.90;;;;;;5054396;28;20065;-55
2023/06/01 01:29:17;;;;;;;15.10;6.38;;;11.90;99.90;;;;;;5053318;28;20151;-55
2023/06/01 01:31:44;;;;;;;13.55;6.30;;;11.90;99.90;;;;;;5055850;28;20047;-57
2023/06/01 01:34:11;;;;;;;8.43;6.22;;;12.00;99.90;;;;;;5054234;28;20052;-58
2023/06/01 01:36:37;;;;;;;11.93;6.30;;;12.00;99.90;;;;;;5054550;28;20041;-52
2023/06/01 01:39:05;;;;;;;10.68;6.32;;;11.90;99.90;;;;;;5054349;28;20037;-52
2023/06/01 01:41:32;;;;;;;8.02;6.20;;;11.90;99.90;;;;;;5054788;28;20036;-56
2023/06/01 01:43:59;;;;;;;12.45;8.20;;;11.70;99.90;;;;;;5055736;28;20044;-54
2023/06/01 01:46:26;;;;;;;11.18;6.68;;;11.60;99.90;;;;;;5056062;28;20049;-51
2023/06/01 01:48:53;;;;;;;11.75;6.95;;;11.60;99.90;;;;;;5054453;28;20049;-53
2023/06/01 01:51:20;;;;;;;10.15;6.57;;;11.50;99.90;;;;;;5055720;28;20041;-56
2023/06/01 01:53:47;;;;;;;14.10;6.70;;;11.60;99.90;;;;;;5054606;28;20041;-57
2023/06/01 01:56:14;;;;;;;8.98;6.25;;;11.50;99.90;;;;;;5054358;28;20043;-53
2023/06/01 01:58:41;;;;;;;9.93;6.95;;;11.50;99.90;;;;;;5054177;28;20399;-56
2023/06/01 02:01:08;;;;;;;10.98;6.43;;;11.60;99.90;;;;;;5054110;28;20124;-55
2023/06/01 02:03:35;;;;;;;8.40;6.30;;;11.50;99.90;;;;;;5054319;28;20045;-55
2023/06/01 02:06:02;;;;;;;13.07;6.25;;;11.50;99.90;;;;;;5054049;28;20144;-55
2023/06/01 02:08:29;;;;;;;13.10;6.45;;;11.50;99.90;;;;;;5053970;28;20057;-53
2023/06/01 02:10:56;;;;;;;9.98;6.35;;;11.50;99.90;;;;;;5055457;28;20052;-53
2023/06/01 02:13:22;;;;;;;10.57;6.22;;;11.50;99.90;;;;;;5053829;28;20072;-52
2023/06/01 02:15:49;;;;;;;10.80;6.30;;;11.60;99.90;;;;;;5053491;28;20522;-55
2023/06/01 02:18:17;;;;;;;9.52;6.65;;;11.50;99.90;;;;;;5053998;28;20041;-55
2023/06/01 02:20:45;;;;;;;12.55;6.28;;;11.50;99.90;;;;;;5054990;28;20040;-57
2023/06/01 02:23:12;;;;;;;10.30;6.15;;;11.50;99.90;;;;;;5053512;28;20048;-55
2023/06/01 02:25:38;;;;;;;10.68;6.20;;;11.50;99.90;;;;;;5053737;28;20067;-57
2023/06/01 02:28:07;;;;;;;10.77;6.30;;;11.50;99.90;;;;;;5054608;28;20046;-51
2023/06/01 02:30:33;;;;;;;10.98;6.18;;;11.50;99.90;;;;;;5053357;28;20056;-55
2023/06/01 02:33:01;;;;;;;10.93;5.90;;;11.50;99.90;;;;;;5053244;28;20110;-57
2023/06/01 02:35:28;;;;;;;8.48;6.05;;;11.50;99.90;;;;;;5053621;28;20033;-50
2023/06/01 02:37:56;;;;;;;11.38;6.30;;;11.50;99.90;;;;;;5053681;28;20049;-56
2023/06/01 02:40:22;;;;;;;11.20;7.03;;;11.50;99.90;;;;;;5053130;28;20047;-56
2023/06/01 02:42:50;;;;;;;13.55;6.68;;;11.40;99.90;;;;;;5053554;28;20044;-56
2023/06/01 02:45:17;;;;;;;12.75;6.43;;;11.40;99.90;;;;;;5053468;28;20050;-57
2023/06/01 02:47:44;;;;;;;11.88;6.88;;;11.40;99.90;;;;;;5054754;28;20045;-55
2023/06/01 02:50:11;;;;;;;11.00;6.40;;;11.30;99.90;;;;;;5052883;28;20045;-55
2023/06/01 02:52:43;;;;;;;10.95;6.18;;;11.30;99.90;;;;;;5053373;28;20052;-58
2023/06/01 02:55:10;;;;;;;9.55;6.30;;;11.40;99.90;;;;;;5052989;28;20499;-55
2023/06/01 02:57:59;;;;;;;11.25;6.72;;;11.40;99.90;;;;;;5053274;28;20056;-55
2023/06/01 03:00:29;;;;;;;10.65;6.65;;;11.40;99.90;;;;;;5053187;28;20064;-59
2023/06/01 03:02:56;;;;;;;11.55;6.60;;;11.30;99.90;;;;;;5054561;28;20493;-51
2023/06/01 03:05:23;;;;;;;12.07;6.38;;;11.40;99.90;;;;;;5052852;28;20045;-55
2023/06/01 03:08:10;;;;;;;16.63;7.07;;;11.30;99.90;;;;;;5054045;28;20059;-57
2023/06/01 03:10:37;;;;;;;12.38;6.75;;;11.20;99.90;;;;;;5052891;28;20480;-51
2023/06/01 03:13:17;;;;;;;11.02;6.78;;;11.20;99.90;;;;;;5052984;28;20048;-57
2023/06/01 03:15:44;;;;;;;12.77;6.50;;;11.20;99.90;;;;;;5052533;28;20373;-53
2023/06/01 03:18:11;;;;;;;12.98;6.43;;;11.20;99.90;;;;;;5053083;28;20041;-57
2023/06/01 03:20:38;;;;;;;13.50;7.45;;;11.30;99.90;;;;;;5036164;28;20041;-55
2023/06/01 03:23:06;;;;;;;11.57;6.78;;;11.20;99.90;;;;;;5052661;28;20057;-58
2023/06/01 03:25:33;;;;;;;11.95;6.53;;;11.10;99.90;;;;;;5052851;28;20051;-56
2023/06/01 03:28:00;;;;;;;9.88;6.55;;;11.20;99.90;;;;;;5052552;28;20071;-58
2023/06/01 03:30:27;;;;;;;11.75;6.90;;;11.10;99.90;;;;;;5052821;28;20056;-58
2023/06/01 03:32:54;;;;;;;18.85;6.53;;;11.10;99.90;;;;;;5053491;28;20037;-51
2023/06/01 03:35:21;;;;;;;11.52;6.13;;;11.10;99.90;;;;;;5052269;28;20103;-56
2023/06/01 03:37:48;;;;;;;9.43;6.72;;;11.00;99.90;;;;;;5052293;28;20036;-57
2023/06/01 03:40:18;;;;;;;11.98;6.40;;;11.10;99.90;;;;;;5052289;28;20091;-53
2023/06/01 03:42:46;;;;;;;12.95;6.93;;;11.00;99.90;;;;;;5052787;28;20048;-56
2023/06/01 03:45:13;;;;;;;13.88;6.90;;;11.00;99.90;;;;;;5052403;28;20136;-54
2023/06/01 03:47:40;;;;;;;12.73;7.40;;;11.00;99.90;;;;;;5052499;28;20127;-56
2023/06/01 03:50:07;;;;;;;10.60;6.38;;;11.10;99.90;;;;;;5052319;28;20067;-57
2023/06/01 03:52:34;;;;;;;10.00;6.15;;;11.10;99.90;;;;;;5053057;28;20048;-57
2023/06/01 03:55:01;;;;;;;10.80;6.80;;;11.20;99.90;;;;;;5052419;28;20452;-55
2023/06/01 03:57:53;;;;;;;12.68;6.20;;;11.20;99.90;;;;;;5052475;28;20114;-58
2023/06/01 04:00:20;;;;;;;9.80;6.38;;;11.10;99.90;;;;;;5052234;28;20075;-58
2023/06/01 04:02:49;;;;;;;9.98;6.00;;;11.10;99.90;;;;;;5053154;28;20038;-57
2023/06/01 04:05:17;;;;;;;10.25;6.15;;;11.10;99.90;;;;;;5052002;28;20060;-59
2023/06/01 04:07:44;;;;;;;12.18;6.40;;;11.20;99.90;;;;;;5051857;28;20049;-55
2023/06/01 04:10:13;;;;;;;13.38;6.03;;;11.30;99.90;;;;;;5053321;28;20037;-53
2023/06/01 04:12:40;;;;;;;14.50;6.88;;;11.20;99.90;;;;;;5052216;28;20052;-55
2023/06/01 04:15:07;;;;;;;9.40;6.78;;;11.20;99.90;;;;;;5052192;28;20132;-57
2023/06/01 04:17:35;;;;;;;13.45;6.75;;;11.20;99.90;;;;;;5053388;28;20124;-57
2023/06/01 04:20:06;;;;;;;10.88;6.25;;;11.10;99.90;;;;;;5052313;28;20488;-50
2023/06/01 04:22:32;;;;;;;9.88;7.10;;;11.10;99.90;;;;;;5051960;28;20063;-58
2023/06/01 04:25:00;;;;;;;10.55;6.80;;;11.10;99.90;;;;;;5052428;28;20037;-53
2023/06/01 04:27:26;;;;;;;13.35;7.45;;;11.00;99.90;;;;;;5053423;28;20052;-54
2023/06/01 04:29:53;;;;;;;11.13;6.60;;;10.90;99.90;;;;;;5052026;28;20037;-53
2023/06/01 04:32:21;;;;;;;10.13;6.55;;;10.90;99.90;;;;;;5051931;28;20053;-57
2023/06/01 04:34:50;;;;;;;13.55;7.80;;;10.90;99.90;;;;;;5052220;28;20068;-53
2023/06/01 04:37:21;;;;;;;10.10;6.80;;;10.90;99.90;;;;;;5052264;28;20444;-54
2023/06/01 04:39:51;;;;;;;10.63;6.85;;;10.90;99.90;;;;;;5052123;28;20098;-56
2023/06/01 04:42:18;;;;;;;9.98;7.10;;;10.90;99.90;;;;;;5051934;28;20041;-54
2023/06/01 04:44:49;;;;;;;10.65;6.60;;;10.80;99.90;;;;;;5052181;28;20041;-55
2023/06/01 04:47:17;;;;;;;14.00;7.95;;;10.80;99.90;;;;;;5052123;28;20102;-55
2023/06/01 04:49:47;;;;;;;11.85;7.93;;;10.90;99.90;;;;;;5051808;28;20476;-56
2023/06/01 04:52:14;;;;;;;10.20;7.43;;;10.90;99.90;;;;;;5053204;28;20102;-53
2023/06/01 04:54:41;;;;;;;11.82;7.63;;;10.90;99.90;;;;;;5053290;28;20098;-53
2023/06/01 04:57:07;;;;;;;12.23;7.15;;;10.80;99.90;;;;;;5051460;28;20041;-57
2023/06/01 04:59:34;;;;;;;12.30;7.53;;;10.80;99.90;;;;;;5051658;28;20090;-54
2023/06/01 05:02:01;;;;;;;12.65;7.63;;;10.80;99.90;;;;;;5052902;28;20033;-56
2023/06/01 05:04:28;;;;;;;13.20;7.57;;;10.80;99.90;;;;;;5055854;28;20119;-55
2023/06/01 05:06:55;;;;;;;10.73;7.15;;;10.80;99.90;;;;;;5055409;28;20059;-53
2023/06/01 05:09:23;;;;;;;12.55;7.45;;;10.80;99.90;;;;;;5055254;28;20099;-56
2023/06/01 05:11:50;;;;;;;14.02;7.40;;;10.80;99.90;;;;;;5056042;28;20056;-56
2023/06/01 05:14:17;;;;;;;9.82;6.30;;;10.90;99.90;;;;;;5055236;28;20519;-56
2023/06/01 05:16:44;;;;;;;11.18;7.13;;;11.00;99.90;;;;;;5054799;28;20059;-57
2023/06/01 05:19:12;;;;;;;11.45;6.75;;;11.00;99.90;;;;;;5056600;28;20037;-57
2023/06/01 05:21:40;;;;;;;10.68;6.65;;;11.00;99.90;;;;;;5055139;28;20048;-55
2023/06/01 05:24:07;;;;;;;12.65;7.13;;;11.00;99.90;;;;;;5038205;28;20484;-57
2023/06/01 05:26:34;;;;;;;10.00;6.95;;;11.00;99.90;;;;;;5054687;28;20045;-55
2023/06/01 05:29:03;;;;;;;11.23;6.93;;;10.90;99.90;;;;;;5038206;28;20090;-52
2023/06/01 05:31:30;;;;;;;11.82;7.03;;;11.00;99.90;;;;;;5054409;28;20053;-56
2023/06/01 05:33:57;;;;;;;8.48;6.32;;;11.00;99.90;;;;;;5054655;28;20049;-57
2023/06/01 05:36:27;;;;;;;11.05;6.70;;;11.00;99.90;;;;;;5054799;28;20068;-54
2023/06/01 05:38:55;;;;;;;12.52;6.28;;;10.90;99.90;;;;;;5054543;28;20079;-56
2023/06/01 05:41:22;;;;;;;11.93;6.43;;;10.90;99.90;;;;;;5054531;28;20443;-55
2023/06/01 05:43:50;;;;;;;10.50;6.88;;;11.00;99.90;;;;;;5054645;28;20131;-51
2023/06/01 05:46:18;;;;;;;11.38;6.75;;;11.00;99.90;;;;;;5054308;28;20053;-51
2023/06/01 05:48:45;;;;;;;10.38;6.45;;;11.10;99.90;;;;;;5054732;28;20069;-53
2023/06/01 05:51:13;;;;;;;9.60;6.53;;;11.20;99.90;;;;;;5054545;28;20112;-55
2023/06/01 05:53:41;;;;;;;12.15;7.28;;;11.20;99.90;;;;;;5054760;28;20444;-57
2023/06/01 05:56:08;;;;;;;9.93;6.70;;;11.20;99.90;;;;;;5054165;28;20128;-54
2023/06/01 05:58:35;;;;;;;11.82;6.90;;;11.20;99.90;;;;;;5055573;28;20037;-54
2023/06/01 06:01:03;;;;;;;11.82;6.93;;;11.10;99.90;;;;;;5055923;28;20045;-54
2023/06/01 06:03:30;;;;;;;10.55;6.43;;;11.10;99.90;;;;;;5055512;28;20045;-57
2023/06/01 06:05:57;;;;;;;11.68;6.95;;;11.00;99.90;;;;;;5055412;28;20499;-52
2023/06/01 06:08:24;;;;;;;10.02;8.13;;;11.10;99.90;;;;;;5055586;28;20052;-49
2023/06/01 06:10:50;;;;;;;10.82;7.10;;;11.10;99.90;;;;;;5055357;28;20049;-52
2023/06/01 06:13:17;;;;;;;11.43;7.03;;;11.10;99.90;;;;;;5055533;28;20044;-53
2023/06/01 06:15:44;;;;;;;14.68;7.05;;;11.20;99.90;;;;;;5054455;28;20037;-55
2023/06/01 06:18:11;;;;;;;14.82;7.72;;;11.20;99.90;;;;;;5055129;28;20488;-57
2023/06/01 06:20:38;;;;;;;10.52;7.32;;;11.30;99.90;;;;;;5055339;28;20033;-53
2023/06/01 06:23:05;;;;;;;12.05;6.90;;;11.30;99.90;;;;;;5055184;28;20472;-53
2023/06/01 06:25:31;;;;;;;9.20;6.30;;;11.40;99.90;;;;;;5054938;28;20037;-57
2023/06/01 06:27:58;;;;;;;9.93;6.68;;;11.30;99.90;;;;;;5054919;28;20041;-55
2023/06/01 06:30:26;;;;;;;10.15;6.15;;;11.30;99.90;;;;;;5054905;28;20045;-54
2023/06/01 06:32:53;;;;;;;13.25;5.80;;;11.30;99.90;;;;;;5054883;28;20128;-56
2023/06/01 06:35:20;;;;;;;11.35;6.65;;;11.40;99.90;;;;;;5054846;28;20491;-53
2023/06/01 06:37:47;;;;;;;11.85;6.55;;;11.40;99.90;;;;;;5054756;28;20423;-54
2023/06/01 06:40:14;;;;;;;11.35;6.68;;;11.40;99.90;;;;;;5054648;28;20376;-56
2023/06/01 06:42:41;;;;;;;9.27;6.28;;;11.50;99.90;;;;;;5054553;28;20033;-56
2023/06/01 06:45:08;;;;;;;8.80;5.80;;;11.50;99.90;;;;;;5054430;28;20106;-55
2023/06/01 06:47:35;;;;;;;9.07;5.93;;;11.60;99.90;;;;;;5054424;28;20107;-54
2023/06/01 06:50:02;;;;;;;13.15;6.20;;;11.60;99.90;;;;;;5054480;28;20048;-54
2023/06/01 06:52:28;;;;;;;12.13;5.70;;;11.60;99.90;;;;;;5054352;28;20041;-52
2023/06/01 06:54:55;;;;;;;10.35;6.10;;;11.70;99.90;;;;;;5053453;28;20052;-53
2023/06/01 06:57:22;;;;;;;10.95;5.80;;;11.80;99.90;;;;;;5054374;28;20059;-54
2023/06/01 06:59:49;;;;;;;9.57;5.20;;;11.80;99.90;;;;;;5054518;28;20047;-56
2023/06/01 07:02:16;;;;;;;8.95;5.47;;;11.90;99.90;;;;;;5054527;28;20037;-57
2023/06/01 07:04:43;;;;;;;13.10;5.80;;;12.00;99.90;;;;;;5054422;28;20080;-53
2023/06/01 07:07:09;;;;;;;11.75;5.88;;;12.00;99.90;;;;;;5054279;28;20041;-57
2023/06/01 07:09:36;;;;;;;9.80;5.60;;;12.10;99.90;;;;;;5054179;28;20045;-55
2023/06/01 07:12:03;;;;;;;9.32;5.65;;;12.10;99.90;;;;;;5054412;28;20507;-57
2023/06/01 07:14:30;;;;;;;9.85;6.22;;;12.10;99.90;;;;;;5054442;28;20569;-54
2023/06/01 07:16:57;;;;;;;9.65;5.85;;;12.10;99.90;;;;;;5053947;28;20487;-55
2023/06/01 07:19:24;;;;;;;11.00;6.55;;;12.10;99.90;;;;;;5054165;28;20045;-54
2023/06/01 07:21:51;;;;;;;9.98;6.25;;;12.00;99.90;;;;;;5053733;28;20041;-56
2023/06/01 07:24:18;;;;;;;13.00;6.68;;;12.00;99.90;;;;;;5052568;28;20407;-55
2023/06/01 07:26:45;;;;;;;10.55;6.18;;;12.00;99.90;;;;;;5053088;28;20073;-55
2023/06/01 07:29:12;;;;;;;12.48;6.25;;;12.10;99.90;;;;;;5053776;28;20045;-53
2023/06/01 07:31:39;;;;;;;11.05;6.30;;;12.10;99.90;;;;;;5044836;28;20108;-56
2023/06/01 07:34:06;;;;;;;9.32;6.82;;;12.10;99.90;;;;;;5033708;28;20129;-57
2023/06/01 07:36:36;;;;;;;11.23;6.22;;;12.00;99.90;;;;;;5033853;28;20041;-55
2023/06/01 07:39:08;;;;;;;13.32;6.45;;;12.00;99.90;;;;;;5033921;28;20072;-54
2023/06/01 07:41:35;;;;;;;11.00;6.30;;;12.10;99.90;;;;;;5033738;28;20383;-56
2023/06/01 07:44:02;;;;;;;12.68;6.25;;;12.10;99.90;;;;;;5034123;28;20037;-54
2023/06/01 07:46:29;;;;;;;8.93;6.03;;;12.20;99.90;;;;;;5033385;28;20124;-54
2023/06/01 07:48:57;;;;;;;10.82;6.40;;;12.20;99.90;;;;;;5033984;28;20124;-56
2023/06/01 07:51:24;;;;;;;12.63;5.95;;;12.30;99.90;;;;;;5033408;28;20124;-56
2023/06/01 07:53:50;;;;;;;8.95;5.22;;;12.40;99.90;;;;;;5033320;28;20045;-57
2023/06/01 07:56:17;;;;;;;8.73;5.50;;;12.50;99.90;;;;;;5033435;28;20043;-54
2023/06/01 07:58:44;;;;;;;8.60;5.18;;;12.50;99.90;;;;;;5033678;28;20038;-57
2023/06/01 08:01:11;;;;;;;10.57;4.90;;;12.50;99.90;;;;;;5033901;28;20133;-54
2023/06/01 08:03:37;;;;;;;10.95;5.25;;;12.60;99.90;;;;;;5033746;28;20068;-55
2023/06/01 08:06:04;;;;;;;10.20;5.10;;;12.70;99.90;;;;;;5033318;28;20037;-52
2023/06/01 08:08:32;;;;;;;12.50;5.35;;;12.70;99.90;;;;;;5033710;28;20377;-54
2023/06/01 08:10:59;;;;;;;11.57;5.30;;;12.80;99.90;;;;;;5033098;28;20041;-56
2023/06/01 08:13:26;;;;;;;8.43;5.32;;;12.90;99.90;;;;;;5031684;28;20120;-56
2023/06/01 08:15:53;;;;;;;11.55;5.35;;;13.00;99.90;;;;;;5033076;28;20046;-54
2023/06/01 08:18:21;;;;;;;11.50;5.57;;;13.00;99.90;;;;;;5033093;28;20426;-51
2023/06/01 08:20:49;;;;;;;12.48;5.45;;;13.10;99.90;;;;;;5033482;28;20445;-56
2023/06/01 08:23:22;;;;;;;8.77;5.20;;;13.10;99.90;;;;;;5033325;28;20046;-54
2023/06/01 08:25:49;;;;;;;8.82;5.15;;;13.10;99.90;;;;;;5033587;28;20057;-52
2023/06/01 08:28:16;;;;;;;13.35;5.80;;;13.00;99.90;;;;;;5033426;28;20096;-55
2023/06/01 08:30:43;;;;;;;9.63;5.45;;;13.00;99.90;;;;;;5032977;28;20048;-56
2023/06/01 08:33:09;;;;;;;8.55;4.88;;;13.10;99.90;;;;;;5033059;28;20052;-53
2023/06/01 08:35:36;;;;;;;11.80;5.10;;;13.10;99.90;;;;;;5028541;28;20045;-54
2023/06/01 08:38:05;;;;;;;10.52;5.88;;;13.10;99.90;;;;;;5028608;28;20033;-50
2023/06/01 08:40:32;;;;;;;11.98;6.10;;;13.00;99.90;;;;;;5036384;28;20041;-55
2023/06/01 08:42:58;;;;;;;10.82;5.60;;;13.10;99.90;;;;;;5036597;28;20041;-54
2023/06/01 08:45:28;;;;;;;12.00;5.15;;;13.10;99.90;;;;;;5036468;28;20037;-54
2023/06/01 08:47:55;;;;;;;10.13;5.50;;;13.00;99.90;;;;;;5036421;28;20060;-54
2023/06/01 08:50:22;;;;;;;12.13;5.90;;;13.00;99.90;;;;;;5036046;28;20041;-53
2023/06/01 08:52:49;;;;;;;9.23;5.00;;;13.10;99.90;;;;;;5036097;28;20052;-53
2023/06/01 08:55:16;;;;;;;8.38;5.35;;;13.20;99.90;;;;;;5036055;28;20048;-56
2023/06/01 08:57:43;;;;;;;10.45;5.50;;;13.30;99.90;;;;;;5035974;28;20033;-53
2023/06/01 09:00:10;;;;;;;9.70;5.50;;;13.40;99.90;;;;;;5035305;28;20049;-54
2023/06/01 09:02:42;;;;;;;11.27;5.57;;;13.50;99.90;;;;;;5035122;28;20144;-54
2023/06/01 09:05:09;;;;;;;12.45;5.43;;;13.40;99.90;;;;;;5033371;28;20044;-54
2023/06/01 09:07:36;;;;;;;12.90;5.82;;;13.30;99.90;;;;;;5033354;28;20623;-56
2023/06/01 09:10:03;;;;;;;9.18;4.93;;;13.40;99.90;;;;;;5035269;28;20415;-54
2023/06/01 09:12:30;;;;;;;11.45;5.05;;;13.50;99.90;;;;;;5036099;28;20049;-56
2023/06/01 09:14:56;;;;;;;9.00;5.10;;;13.50;99.90;;;;;;5035892;28;20042;-56
2023/06/01 09:17:23;;;;;;;10.90;5.53;;;13.60;99.90;;;;;;5035137;28;20128;-55
2023/06/01 09:19:50;;;;;;;9.68;5.13;;;13.50;99.90;;;;;;5035233;28;20514;-51
2023/06/01 09:22:17;;;;;;;11.77;5.85;;;13.70;99.90;;;;;;5035724;28;20120;-58
2023/06/01 09:24:44;;;;;;;8.93;5.20;;;13.70;99.90;;;;;;5035483;28;20045;-55
2023/06/01 09:27:11;;;;;;;8.93;4.75;;;13.70;99.90;;;;;;5035579;28;20419;-51
2023/06/01 09:29:37;;;;;;;8.88;5.20;;;13.70;99.90;;;;;;5035509;28;20503;-51
2023/06/01 09:32:04;;;;;;;11.50;4.85;;;13.80;99.90;;;;;;5035542;28;20041;-54
2023/06/01 09:34:31;;;;;;;7.35;5.07;;;13.90;99.90;;;;;;5035366;28;20041;-56
2023/06/01 09:36:58;;;;;;;7.82;4.75;;;14.00;99.90;;;;;;5035284;28;20041;-57
2023/06/01 09:39:25;;;;;;;7.55;4.88;;;14.10;99.90;;;;;;5035134;28;20046;-56
2023/06/01 09:41:52;;;;;;;6.80;4.30;;;14.10;99.90;;;;;;5035231;28;20499;-58
2023/06/01 09:44:19;;;;;;;8.48;4.63;;;14.20;99.90;;;;;;5035339;28;20051;-52
2023/06/01 09:46:47;;;;;;;11.05;5.07;;;14.30;99.90;;;;;;5035081;28;20947;-53
2023/06/01 09:49:13;;;;;;;6.60;4.28;;;14.40;99.90;;;;;;5034646;28;20518;-54
2023/06/01 09:51:40;;;;;;;11.77;4.68;;;14.50;99.90;;;;;;5034638;28;20044;-55
2023/06/01 09:54:07;;;;;;;12.68;4.97;;;14.60;99.90;;;;;;5035185;28;20523;-55
2023/06/01 09:56:34;;;;;;;9.10;4.53;;;14.60;99.90;;;;;;5034874;28;20060;-54
2023/06/01 09:59:01;;;;;;;10.43;4.82;;;14.70;99.80;;;;;;5035129;28;20042;-56
2023/06/01 10:01:28;;;;;;;7.78;4.10;;;14.80;99.80;;;;;;5035023;28;20061;-56
2023/06/01 10:03:55;;;;;;;8.68;5.07;;;15.00;99.80;;;;;;5033740;28;20033;-54
2023/06/01 10:06:22;;;;;;;8.40;4.82;;;15.10;99.60;;;;;;5034577;28;20115;-55
2023/06/01 10:08:51;;;;;;;8.10;4.60;;;15.10;99.50;;;;;;5034747;28;20472;-57
2023/06/01 10:11:18;;;;;;;7.70;4.63;;;15.10;99.30;;;;;;5034899;28;20095;-57
2023/06/01 10:13:44;;;;;;;8.93;4.63;;;15.10;99.10;;;;;;5034781;28;20045;-56
2023/06/01 10:16:12;;;;;;;8.68;4.50;;;15.10;99.30;;;;;;5034501;28;20168;-57
2023/06/01 10:18:39;;;;;;;8.32;5.25;;;15.10;99.00;;;;;;5034516;28;20037;-56
2023/06/01 10:21:06;;;;;;;9.07;4.63;;;15.10;99.00;;;;;;5034631;28;20143;-55
2023/06/01 10:23:33;;;;;;;9.02;4.78;;;15.40;99.10;;;;;;5034450;28;20436;-56
2023/06/01 10:26:00;;;;;;;6.93;4.45;;;15.50;99.00;;;;;;5034626;28;20034;-54
2023/06/01 10:28:29;;;;;;;10.25;4.63;;;15.60;98.80;;;;;;5034664;28;20103;-56
2023/06/01 10:30:56;;;;;;;6.93;4.60;;;15.80;98.60;;;;;;5034568;28;20073;-56
2023/06/01 10:33:22;;;;;;;10.73;5.35;;;15.90;98.20;;;;;;5034157;28;20095;-54
2023/06/01 10:36:00;;;;;;;13.65;5.60;;;15.90;97.80;;;;;;5034199;28;20538;-52
2023/06/01 10:38:27;;;;;;;7.22;4.97;;;15.90;98.20;;;;;;5034231;28;20065;-55
2023/06/01 10:40:54;;;;;;;10.93;5.32;;;16.00;98.10;;;;;;5034204;28;20056;-57
2023/06/01 10:43:21;;;;;;;10.50;5.53;;;16.00;98.10;;;;;;5033147;28;20033;-56
2023/06/01 10:45:48;;;;;;;9.60;5.65;;;15.90;98.10;;;;;;5034042;28;20037;-56
2023/06/01 10:48:15;;;;;;;10.00;6.85;;;16.00;98.40;;;;;;5034127;28;20042;-55
2023/06/01 10:50:41;;;;;;;9.52;5.95;;;16.20;97.90;;;;;;5034018;28;20045;-54
2023/06/01 10:53:08;;;;;;;9.88;5.25;;;16.20;97.50;;;;;;5034145;28;20524;-57
2023/06/01 10:55:35;;;;;;;8.82;6.07;;;16.20;97.30;;;;;;5034086;28;20041;-55
2023/06/01 10:58:02;;;;;;;10.35;5.93;;;16.00;97.30;;;;;;5033995;28;20469;-58
2023/06/01 11:00:30;;;;;;;10.15;5.50;;;16.00;97.80;;;;;;5034162;28;20099;-56
2023/06/01 11:02:57;;;;;;;8.68;6.13;;;16.20;97.40;;;;;;5033664;28;20465;-54
2023/06/01 11:05:24;;;;;;;8.68;5.13;;;16.30;96.90;;;;;;5033758;28;20045;-54
2023/06/01 11:07:51;;;;;;;8.93;4.80;;;16.40;97.00;;;;;;5032993;28;20037;-57
2023/06/01 11:10:17;;;;;;;11.13;5.30;;;16.60;97.20;;;;;;5034400;28;20107;-54
2023/06/01 11:12:45;;;;;;;10.80;5.50;;;16.80;96.70;;;;;;5034325;28;20041;-55
2023/06/01 11:15:12;;;;;;;9.68;5.32;;;16.90;96.20;;;;;;5033117;28;20045;-57
2023/06/01 11:17:39;;;;;;;7.55;4.82;;;16.80;96.60;;;;;;5033676;28;20084;-54
2023/06/01 11:20:10;;;;;;;10.25;5.63;;;17.00;96.20;;;;;;5034513;28;20042;-57
2023/06/01 11:22:37;;;;;;;11.95;5.00;;;16.90;96.50;;;;;;5034025;28;20091;-55
2023/06/01 11:25:05;;;;;;;9.20;4.97;;;16.90;96.70;;;;;;5034226;28;20590;-57
2023/06/01 11:27:32;;;;;;;8.48;5.15;;;17.00;96.30;;;;;;5034272;28;20049;-54
2023/06/01 11:29:59;;;;;;;8.05;5.18;;;16.90;96.40;;;;;;5033563;28;20053;-57
2023/06/01 11:32:25;;;;;;;7.53;5.05;;;16.90;96.40;;;;;;5032891;28;20091;-55
2023/06/01 11:34:54;;;;;;;10.30;5.35;;;16.90;96.60;;;;;;5032870;28;20578;-56
2023/06/01 11:37:21;;;;;;;9.60;5.35;;;16.90;96.60;;;;;;5032722;28;20041;-54
2023/06/01 11:39:48;;;;;;;9.73;5.85;;;17.10;96.30;;;;;;5032700;28;20041;-58
2023/06/01 11:42:15;;;;;;;9.90;5.78;;;17.10;96.00;;;;;;5032735;28;20042;-57
2023/06/01 11:44:42;;;;;;;11.63;5.35;;;17.00;96.20;;;;;;5032935;28;20044;-57
2023/06/01 11:47:09;;;;;;;9.88;5.60;;;17.20;96.30;;;;;;5033819;28;20042;-58
2023/06/01 11:49:35;;;;;;;10.63;5.72;;;17.30;95.60;;;;;;5032299;28;20476;-58
2023/06/01 11:52:02;;;;;;;10.27;6.00;;;17.30;95.50;;;;;;5033830;28;20033;-56
2023/06/01 11:54:29;;;;;;;14.00;5.60;;;17.30;95.60;;;;;;5033640;28;20484;-57
2023/06/01 11:56:56;;;;;;;8.63;6.00;;;17.30;95.40;;;;;;5033504;28;20038;-58
2023/06/01 11:59:25;;;;;;;10.32;5.50;;;17.30;95.40;;;;;;5033231;28;20041;-55
2023/06/01 12:01:53;;;;;;;13.85;5.85;;;17.40;95.50;;;;;;5032897;28;20378;-57
2023/06/01 12:04:20;;;;;;;8.93;5.50;;;17.70;95.50;;;;;;5033595;28;20037;-57
2023/06/01 12:06:47;;;;;;;10.13;5.57;;;17.90;95.10;;;;;;5033576;28;20042;-58
2023/06/01 12:09:15;;;;;;;9.93;5.90;;;18.10;95.10;;;;;;5033321;28;20199;-57
2023/06/01 12:11:44;;;;;;;11.90;5.50;;;18.00;94.70;;;;;;5033102;28;20095;-56
2023/06/01 12:14:11;;;;;;;11.85;6.35;;;17.80;95.00;;;;;;5035985;28;20045;-55
2023/06/01 12:16:40;;;;;;;9.88;6.00;;;17.60;95.10;;;;;;5037486;28;20049;-57
2023/06/01 12:19:07;;;;;;;9.23;5.82;;;17.40;95.40;;;;;;5037326;28;20048;-55
2023/06/01 12:21:34;;;;;;;11.73;6.28;;;17.30;95.70;;;;;;5037798;28;20060;-58
2023/06/01 12:24:01;;;;;;;8.82;5.63;;;17.30;95.40;;;;;;5037008;28;20128;-57
2023/06/01 12:26:28;;;;;;;8.75;5.85;;;17.30;95.40;;;;;;5037270;28;20041;-57
2023/06/01 12:28:56;;;;;;;10.70;5.88;;;17.10;95.90;;;;;;5037341;28;20497;-56
2023/06/01 12:31:27;;;;;;;10.50;5.65;;;17.30;96.00;;;;;;5037490;28;20042;-56
2023/06/01 12:33:55;;;;;;;9.45;6.10;;;17.40;95.60;;;;;;5035968;28;20045;-56
2023/06/01 12:36:21;;;;;;;12.32;5.70;;;17.30;95.70;;;;;;5037186;28;20051;-54
2023/06/01 12:38:48;;;;;;;11.77;6.38;;;17.10;95.70;;;;;;5037029;28;20152;-58
2023/06/01 12:41:17;;;;;;;11.23;5.78;;;17.00;95.60;;;;;;5037338;28;20436;-55